Map

Track Data

SID SEASON NUMBER BASIN SUBBASIN NAME ISO_TIME NATURE LAT LON WMO_WIND WMO_PRES WMO_AGENCY TRACK_TYPE DIST2LAND LANDFALL IFLAG USA_AGENCY USA_ATCF_ID USA_LAT USA_LON USA_RECORD USA_STATUS USA_WIND USA_PRES USA_SSHS USA_R34_NE USA_R34_SE USA_R34_SW USA_R34_NW USA_R50_NE USA_R50_SE USA_R50_SW USA_R50_NW USA_R64_NE USA_R64_SE USA_R64_SW USA_R64_NW USA_POCI USA_ROCI USA_RMW USA_EYE TOKYO_LAT TOKYO_LON TOKYO_GRADE TOKYO_WIND TOKYO_PRES TOKYO_R50_DIR TOKYO_R50_LONG TOKYO_R50_SHORT TOKYO_R30_DIR TOKYO_R30_LONG TOKYO_R30_SHORT TOKYO_LAND CMA_LAT CMA_LON CMA_CAT CMA_WIND CMA_PRES HKO_LAT HKO_LON HKO_CAT HKO_WIND HKO_PRES NEWDELHI_LAT NEWDELHI_LON NEWDELHI_GRADE NEWDELHI_WIND NEWDELHI_PRES NEWDELHI_CI NEWDELHI_DP NEWDELHI_POCI REUNION_LAT REUNION_LON REUNION_TYPE REUNION_WIND REUNION_PRES REUNION_TNUM REUNION_CI REUNION_RMW REUNION_R34_NE REUNION_R34_SE REUNION_R34_SW REUNION_R34_NW REUNION_R50_NE REUNION_R50_SE REUNION_R50_SW REUNION_R50_NW REUNION_R64_NE REUNION_R64_SE REUNION_R64_SW REUNION_R64_NW BOM_LAT BOM_LON BOM_TYPE BOM_WIND BOM_PRES BOM_TNUM BOM_CI BOM_RMW BOM_R34_NE BOM_R34_SE BOM_R34_SW BOM_R34_NW BOM_R50_NE BOM_R50_SE BOM_R50_SW BOM_R50_NW BOM_R64_NE BOM_R64_SE BOM_R64_SW BOM_R64_NW BOM_ROCI BOM_POCI BOM_EYE BOM_POS_METHOD BOM_PRES_METHOD NADI_LAT NADI_LON NADI_CAT NADI_WIND NADI_PRES WELLINGTON_LAT WELLINGTON_LON WELLINGTON_WIND WELLINGTON_PRES DS824_LAT DS824_LON DS824_STAGE DS824_WIND DS824_PRES TD9636_LAT TD9636_LON TD9636_STAGE TD9636_WIND TD9636_PRES TD9635_LAT TD9635_LON TD9635_WIND TD9635_PRES TD9635_ROCI NEUMANN_LAT NEUMANN_LON NEUMANN_CLASS NEUMANN_WIND NEUMANN_PRES MLC_LAT MLC_LON MLC_CLASS MLC_WIND MLC_PRES USA_GUST BOM_GUST BOM_GUST_PER REUNION_GUST REUNION_GUST_PER USA_SEAHGT USA_SEARAD_NE USA_SEARAD_SE USA_SEARAD_SW USA_SEARAD_NW STORM_SPEED STORM_DIR
1952063S15153 1952 18 SP EA NOT_NAMED 1952-03-02 12:00:00 TS -14.9000 152.700 bom main 528 528 O_____O__OO___ jtwc_sh SH171952 -14.9000 152.700 -1 -14.9000 152.700 -14.9000 152.700 TC -14.9000 152.700 2 4 137
1952063S15153 1952 18 SP EA NOT_NAMED 1952-03-02 15:00:00 TS -15.0440 152.842 main 542 542 P_____P__PP___ SH171952 -15.0425 152.832 -1 -15.0425 152.832 -15.0425 152.832 TC -15.0484 152.870 2 4 135
1952063S15153 1952 18 SP EA NOT_NAMED 1952-03-02 18:00:00 TS -15.2019 153.013 bom main 572 572 O_____O__OP___ jtwc_sh SH171952 -15.2000 153.000 -1 -15.2000 153.000 -15.2000 153.000 TC -15.2075 153.053 2 5 132
1952063S15153 1952 18 SP EA NOT_NAMED 1952-03-02 21:00:00 TS -15.3857 153.235 main 601 601 P_____P__PP___ SH171952 -15.3850 153.228 -1 -15.3850 153.228 -15.3850 153.228 TC -15.3878 153.259 2 6 130
1952063S15153 1952 18 SP EA NOT_NAMED 1952-03-03 00:00:00 TS -15.6000 153.500 bom main 636 636 O_____O__OO___ jtwc_sh SH171952 -15.6000 153.500 -1 -15.6000 153.500 -15.6000 153.500 TC -15.6000 153.500 2 7 131
1952063S15153 1952 18 SP EA NOT_NAMED 1952-03-03 03:00:00 TS -15.8388 153.785 main 672 672 P_____P__PP___ SH171952 -15.8350 153.785 -1 -15.8350 153.785 -15.8350 153.785 TC -15.8504 153.785 2 8 131
1952063S15153 1952 18 SP EA NOT_NAMED 1952-03-03 06:00:00 TS -16.1069 154.101 bom main 717 717 O_____O__OP___ jtwc_sh SH171952 -16.1000 154.100 -1 -16.1000 154.100 -16.1000 154.100 TC -16.1275 154.105 2 9 132
1952063S15153 1952 18 SP EA NOT_NAMED 1952-03-03 09:00:00 TS -16.4040 154.444 main 734 734 P_____P__PP___ SH171952 -16.4000 154.443 -1 -16.4000 154.443 -16.4000 154.443 TC -16.4159 154.447 2 9 131
1952063S15153 1952 18 SP EA NOT_NAMED 1952-03-03 12:00:00 TS -16.7000 154.800 bom main 749 749 O_____O__OO___ jtwc_sh SH171952 -16.7000 154.800 -1 -16.7000 154.800 -16.7000 154.800 TC -16.7000 154.800 2 9 129
1952063S15153 1952 18 SP EA NOT_NAMED 1952-03-03 15:00:00 TS -16.9542 155.144 main 759 759 P_____P__PP___ SH171952 -16.9574 155.150 -1 -16.9574 155.150 -16.9574 155.150 TC -16.9447 155.127 2 8 127
1952063S15153 1952 18 SP EA NOT_NAMED 1952-03-03 18:00:00 TS -17.1961 155.491 bom main 768 765 O_____O__OP___ jtwc_sh SH171952 -17.2000 155.500 -1 -17.2000 155.500 -17.2000 155.500 TC -17.1845 155.464 2 8 126
1952063S15153 1952 18 SP EA NOT_NAMED 1952-03-03 21:00:00 TS -17.4398 155.837 main 772 770 P_____P__PP___ SH171952 -17.4424 155.843 -1 -17.4424 155.843 -17.4424 155.843 TC -17.4321 155.818 2 8 127
1952063S15153 1952 18 SP EA NOT_NAMED 1952-03-04 00:00:00 TS -17.7000 156.200 bom main 778 778 O_____O__OO___ jtwc_sh SH171952 -17.7000 156.200 -1 -17.7000 156.200 -17.7000 156.200 TC -17.7000 156.200 2 9 128
1952063S15153 1952 18 SP EA NOT_NAMED 1952-03-04 03:00:00 TS -17.9945 156.585 main 786 767 P_____P__PP___ SH171952 -17.9849 156.578 -1 -17.9849 156.578 -17.9849 156.578 TC -18.0235 156.609 2 10 129
1952063S15153 1952 18 SP EA NOT_NAMED 1952-03-04 06:00:00 TS -18.3162 157.012 bom main 767 707 O_____O__OP___ jtwc_sh SH171952 -18.3000 157.000 -1 -18.3000 157.000 -18.3000 157.000 TC -18.3646 157.047 2 11 128
1952063S15153 1952 18 SP EA NOT_NAMED 1952-03-04 09:00:00 TS -18.6621 157.492 main 704 644 P_____P__PP___ SH171952 -18.6500 157.485 -1 -18.6500 157.485 -18.6500 157.485 TC -18.6984 157.512 2 12 126
1952063S15153 1952 18 SP EA NOT_NAMED 1952-03-04 12:00:00 TS -19.0000 158.000 bom main 644 586 O_____O__OO___ jtwc_sh SH171952 -19.0000 158.000 -1 -19.0000 158.000 -19.0000 158.000 TC -19.0000 158.000 2 12 125
1952063S15153 1952 18 SP EA NOT_NAMED 1952-03-04 15:00:00 TS -19.3259 158.487 main 586 528 P_____P__PP___ SH171952 -19.3373 158.492 -1 -19.3373 158.492 -19.3373 158.492 TC -19.2919 158.470 2 11 122
1952063S15153 1952 18 SP EA NOT_NAMED 1952-03-04 18:00:00 TS -19.5853 158.992 bom main 528 474 O_____O__OP___ jtwc_sh SH171952 -19.6000 159.000 -1 -19.6000 159.000 -19.6000 159.000 TC -19.5410 158.966 2 11 114
1952063S15153 1952 18 SP EA NOT_NAMED 1952-03-04 21:00:00 TS -19.7553 159.516 main 473 411 P_____P__PP___ SH171952 -19.7672 159.520 -1 -19.7672 159.520 -19.7672 159.520 TC -19.7197 159.504 2 11 102
1952063S15153 1952 18 SP MM NOT_NAMED 1952-03-05 00:00:00 TS -19.8000 160.100 bom main 411 351 O_____O__OO___ jtwc_sh SH171952 -19.8000 160.100 -1 -19.8000 160.100 -19.8000 160.100 TC -19.8000 160.100 2 12 87
1952063S15153 1952 18 SP MM NOT_NAMED 1952-03-05 03:00:00 TS -19.7003 160.773 main 341 276 P_____P__PP___ SH171952 -19.6874 160.770 -1 -19.6874 160.770 -19.6874 160.770 TC -19.7389 160.782 2 14 78
1952063S15153 1952 18 SP MM NOT_NAMED 1952-03-05 06:00:00 TS -19.5208 161.504 bom main 276 213 O_____O__OP___ jtwc_sh SH171952 -19.5000 161.500 -1 -19.5000 161.500 -19.5000 161.500 TC -19.5831 161.515 2 14 76
1952063S15153 1952 18 SP MM NOT_NAMED 1952-03-05 09:00:00 TS -19.3533 162.260 main 204 160 P_____P__PP___ SH171952 -19.3425 162.258 -1 -19.3425 162.258 -19.3425 162.258 TC -19.3857 162.266 2 14 77
1952063S15153 1952 18 SP MM NOT_NAMED 1952-03-05 12:00:00 TS -19.2000 163.000 bom main 160 133 O_____O__OO___ jtwc_sh SH171952 -19.2000 163.000 -1 -19.2000 163.000 -19.2000 163.000 TC -19.2000 163.000 2 14 78
1952063S15153 1952 18 SP MM NOT_NAMED 1952-03-05 15:00:00 TS -19.0811 163.674 main 129 124 P_____P__PP___ SH171952 -19.0846 163.665 -1 -19.0846 163.665 -19.0846 163.665 TC -19.0705 163.700 2 13 81
1952063S15153 1952 18 SP MM NOT_NAMED 1952-03-05 18:00:00 TS -18.9918 164.319 bom main 135 135 O_____O__OP___ jtwc_sh SH171952 -19.0000 164.300 -1 -19.0000 164.300 -19.0000 164.300 TC -18.9671 164.375 2 12 83
1952063S15153 1952 18 SP MM NOT_NAMED 1952-03-05 21:00:00 TS -18.9219 164.983 main 165 165 P_____P__PP___ SH171952 -18.9275 164.973 -1 -18.9275 164.973 -18.9275 164.973 TC -18.9051 165.013 2 12 86
1952063S15153 1952 18 SP MM NOT_NAMED 1952-03-06 00:00:00 TS -18.9000 165.600 bom main 194 194 O_____O__OO___ jtwc_sh SH171952 -18.9000 165.600 -1 -18.9000 165.600 -18.9000 165.600 TC -18.9000 165.600 2 11 90
1952063S15153 1952 18 SP MM NOT_NAMED 1952-03-06 03:00:00 TS -18.9188 166.136 main 229 229 P_____P__PP___ SH171952 -18.9122 166.130 -1 -18.9122 166.130 -18.9122 166.130 TC -18.9384 166.153 2 10 96
1952063S15153 1952 18 SP MM NOT_NAMED 1952-03-06 06:00:00 TS -19.0092 166.614 bom main 248 248 O_____O__OP___ jtwc_sh SH171952 -19.0000 166.600 -1 -19.0000 166.600 -19.0000 166.600 TC -19.0368 166.655 2 9 106
1952063S15153 1952 18 SP MM NOT_NAMED 1952-03-06 09:00:00 TS -19.1698 167.080 main 267 267 P_____P__PP___ SH171952 -19.1624 167.072 -1 -19.1624 167.072 -19.1624 167.072 TC -19.1918 167.104 2 9 115
1952063S15153 1952 18 SP MM NOT_NAMED 1952-03-06 12:00:00 TS -19.4000 167.500 bom main 276 269 O_____O__OO___ jtwc_sh SH171952 -19.4000 167.500 -1 -19.4000 167.500 -19.4000 167.500 TC -19.4000 167.500 2 9 124
1952063S15153 1952 18 SP MM NOT_NAMED 1952-03-06 15:00:00 TS -19.6801 167.885 main 272 266 P_____P__PP___ SH171952 -19.6849 167.880 -1 -19.6849 167.880 -19.6849 167.880 TC -19.6656 167.898 2 9 132
1952063S15153 1952 18 SP MM NOT_NAMED 1952-03-06 18:00:00 TS -19.9943 168.210 bom main 266 260 O_____O__OP___ jtwc_sh SH171952 -20.0000 168.200 -1 -20.0000 168.200 -20.0000 168.200 TC -19.9772 168.241 2 9 138
1952063S15153 1952 18 SP MM NOT_NAMED 1952-03-06 21:00:00 TS -20.3113 168.500 main 260 250 P_____P__PP___ SH171952 -20.3150 168.495 -1 -20.3150 168.495 -20.3150 168.495 TC -20.3002 168.514 2 8 143
1952063S15153 1952 18 SP MM NOT_NAMED 1952-03-07 00:00:00 TS -20.6000 168.700 bom main 250 243 O_____O__OO___ jtwc_sh SH171952 -20.6000 168.700 -1 -20.6000 168.700 -20.6000 168.700 TC -20.6000 168.700 2 6 151
1952063S15153 1952 18 SP MM NOT_NAMED 1952-03-07 03:00:00 TS -20.8203 168.799 main 243 229 P_____P__PP___ SH171952 -20.8149 168.795 -1 -20.8149 168.795 -20.8149 168.795 TC -20.8365 168.811 2 4 166
1952063S15153 1952 18 SP MM NOT_NAMED 1952-03-07 06:00:00 TS -21.0111 168.809 bom main 229 216 O_____O__OP___ jtwc_sh SH171952 -21.0000 168.800 -1 -21.0000 168.800 -21.0000 168.800 TC -21.0445 168.836 2 4 183
1952063S15153 1952 18 SP MM NOT_NAMED 1952-03-07 09:00:00 TS -21.2076 168.783 main 216 196 P_____P__PP___ SH171952 -21.2000 168.780 -1 -21.2000 168.780 -21.2000 168.780 TC -21.2303 168.792 2 4 195
1952063S15153 1952 18 SP MM NOT_NAMED 1952-03-07 12:00:00 TS -21.4000 168.700 bom main 196 178 O_____O__OO___ jtwc_sh SH171952 -21.4000 168.700 -1 -21.4000 168.700 -21.4000 168.700 TC -21.4000 168.700 2 5 206
1952063S15153 1952 18 SP MM NOT_NAMED 1952-03-07 15:00:00 TS -21.6125 168.570 main 178 151 P_____P__PP___ SH171952 -21.6150 168.565 -1 -21.6150 168.565 -21.6150 168.565 TC -21.6051 168.585 2 5 214
1952063S15153 1952 18 SP MM NOT_NAMED 1952-03-07 18:00:00 TS -21.7975 168.408 bom main 151 138 O_____O__OP___ jtwc_sh SH171952 -21.8000 168.400 -1 -21.8000 168.400 -21.8000 168.400 TC -21.7902 168.431 2 4 222
1952063S15153 1952 18 SP MM NOT_NAMED 1952-03-07 21:00:00 TS -21.9413 168.247 main 128 115 P_____P__PP___ SH171952 -21.9450 168.243 -1 -21.9450 168.243 -21.9450 168.243 TC -21.9301 168.260 2 4 235
1952063S15153 1952 18 SP MM NOT_NAMED 1952-03-08 00:00:00 TS -22.0000 168.100 bom main 115 105 O_____O__OO___ jtwc_sh SH171952 -22.0000 168.100 -1 -22.0000 168.100 -22.0000 168.100 TC -22.0000 168.100 2 2 270
1952063S15153 1952 18 SP MM NOT_NAMED 1952-03-08 03:00:00 TS -21.9404 167.984 main 108 98 P_____P__PP___ SH171952 -21.9300 167.992 -1 -21.9300 167.992 -21.9300 167.992 TC -21.9719 167.957 2 3 312
1952063S15153 1952 18 SP MM NOT_NAMED 1952-03-08 06:00:00 TS -21.8187 167.883 bom main 102 93 O_____O__OP___ jtwc_sh SH171952 -21.8000 167.900 -1 -21.8000 167.900 -21.8000 167.900 TC -21.8750 167.832 2 3 320
1952063S15153 1952 18 SP MM NOT_NAMED 1952-03-08 09:00:00 TS -21.7102 167.774 main 99 91 P_____P__PP___ SH171952 -21.7000 167.785 -1 -21.7000 167.785 -21.7000 167.785 TC -21.7406 167.741 2 3 322
1952063S15153 1952 18 SP MM NOT_NAMED 1952-03-08 12:00:00 TS -21.6000 167.700 bom main 98 98 O_____O__OO___ jtwc_sh SH171952 -21.6000 167.700 -1 -21.6000 167.700 -21.6000 167.700 TC -21.6000 167.700 2 2 337
1952063S15153 1952 18 SP MM NOT_NAMED 1952-03-08 15:00:00 TS -21.4918 167.671 main 106 106 P_____P__PP___ SH171952 -21.5000 167.662 -1 -21.5000 167.662 -21.5000 167.662 TC -21.4673 167.697 2 2 7
1952063S15153 1952 18 SP MM NOT_NAMED 1952-03-08 18:00:00 TS -21.3849 167.711 bom main 113 113 O_____O__OP___ jtwc_sh SH171952 -21.4000 167.700 -1 -21.4000 167.700 -21.4000 167.700 TC -21.3397 167.745 2 3 32
1952063S15153 1952 18 SP MM NOT_NAMED 1952-03-08 21:00:00 TS -21.2687 167.821 main 129 129 P_____P__PP___ SH171952 -21.2775 167.813 -1 -21.2775 167.813 -21.2775 167.813 TC -21.2423 167.847 2 3 55
1952063S15153 1952 18 SP MM NOT_NAMED 1952-03-09 00:00:00 TS -21.2000 168.000 bom main 151 151 O_____O__OO___ jtwc_sh SH171952 -21.2000 168.000 -1 -21.2000 168.000 -21.2000 168.000 TC -21.2000 168.000 2 4 82
1952063S15153 1952 18 SP MM NOT_NAMED 1952-03-09 03:00:00 TS -21.2170 168.228 main 166 166 P_____P__PP___ SH171952 -21.2125 168.235 -1 -21.2125 168.235 -21.2125 168.235 TC -21.2305 168.208 2 5 103
1952063S15153 1952 18 SP MM NOT_NAMED 1952-03-09 06:00:00 TS -21.3045 168.491 bom main 184 184 O_____O__OP___ jtwc_sh SH171952 -21.3000 168.500 -1 -21.3000 168.500 -21.3000 168.500 TC -21.3178 168.462 2 5 114
1952063S15153 1952 18 SP MM NOT_NAMED 1952-03-09 09:00:00 TS -21.4378 168.752 main 206 201 P_____P__PP___ SH171952 -21.4350 168.757 -1 -21.4350 168.757 -21.4350 168.757 TC -21.4462 168.736 2 6 122
1952063S15153 1952 18 SP MM NOT_NAMED 1952-03-09 12:00:00 TS -21.6000 169.000 bom main 216 216 O_____O__OO___ jtwc_sh SH171952 -21.6000 169.000 -1 -21.6000 169.000 -21.6000 169.000 TC -21.6000 169.000 2 5 126
1952063S15153 1952 18 SP MM NOT_NAMED 1952-03-09 15:00:00 TS -21.7421 169.209 main 233 231 P_____P__PP___ SH171952 -21.7424 169.208 -1 -21.7424 169.208 -21.7424 169.208 TC -21.7411 169.215 2 5 129
1952063S15153 1952 18 SP MM NOT_NAMED 1952-03-09 18:00:00 TS -21.9012 169.404 bom main 249 249 O_____O__OP___ jtwc_sh SH171952 -21.9000 169.400 -1 -21.9000 169.400 -21.9000 169.400 TC -21.9048 169.415 2 5 133
1952063S15153 1952 18 SP MM NOT_NAMED 1952-03-09 21:00:00 TS -22.0865 169.602 main 267 267 P_____P__PP___ SH171952 -22.0850 169.600 -1 -22.0850 169.600 -22.0850 169.600 TC -22.0911 169.608 2 5 137
1952063S15153 1952 18 SP MM NOT_NAMED 1952-03-10 00:00:00 TS -22.3000 169.800 bom main 287 287 O_____O__OO___ jtwc_sh SH171952 -22.3000 169.800 -1 -22.3000 169.800 -22.3000 169.800 TC -22.3000 169.800 2 6 141
1952063S15153 1952 18 SP MM NOT_NAMED 1952-03-10 03:00:00 TS -22.5420 170.002 main 309 309 P_____P__PP___ SH171952 -22.5425 170.000 -1 -22.5425 170.000 -22.5425 170.000 TC -22.5406 170.008 2 6 143
1952063S15153 1952 18 SP MM NOT_NAMED 1952-03-10 06:00:00 TS -22.8000 170.204 bom main 333 333 O_____O__OP___ jtwc_sh SH171952 -22.8000 170.200 -1 -22.8000 170.200 -22.8000 170.200 TC -22.8000 170.215 2 6 144
1952063S15153 1952 18 SP MM NOT_NAMED 1952-03-10 09:00:00 TS -23.0636 170.409 main 359 359 P_____P__PP___ SH171952 -23.0650 170.407 -1 -23.0650 170.407 -23.0650 170.407 TC -23.0594 170.414 2 6 144
1952063S15153 1952 18 SP MM NOT_NAMED 1952-03-10 12:00:00 TS -23.3000 170.600 bom main 385 385 O_____O__OO___ jtwc_sh SH171952 -23.3000 170.600 -1 -23.3000 170.600 -23.3000 170.600 TC -23.3000 170.600 2 5 142
1952063S15153 1952 18 SP MM NOT_NAMED 1952-03-10 15:00:00 TS -23.4436 170.738 main 398 398 P_____P__PP___ SH171952 -23.4575 170.758 -1 -23.4575 170.758 -23.4575 170.758 TC -23.4019 170.679 2 4 138
1952063S15153 1952 18 SP MM NOT_NAMED 1952-03-10 18:00:00 TS -23.5745 170.864 bom main 424 424 O_____O__OP___ jtwc_sh SH171952 -23.6000 170.900 -1 -23.6000 170.900 -23.6000 170.900 TC -23.4979 170.757 2 3 141
1952063S15153 1952 18 SP MM NOT_NAMED 1952-03-10 21:00:00 TS -23.7054 170.970 main 438 438 P_____P__PP___ SH171952 -23.7172 170.991 -1 -23.7172 170.991 -23.7172 170.991 TC -23.6700 170.906 2 5 144
1952063S15153 1952 18 SP MM NOT_NAMED 1952-03-11 00:00:00 TS -24.0000 171.200 bom main 469 469 O_____O__OO___ jtwc_sh SH171952 -24.0000 171.200 -1 -24.0000 171.200 -24.0000 171.200 TC -24.0000 171.200 2 11 145
1952063S15153 1952 18 SP MM NOT_NAMED 1952-03-11 03:00:00 TS -24.6136 171.657 main 543 543 P_____P__PP___ SH171952 -24.6097 171.645 -1 -24.6097 171.645 -24.6097 171.645 TC -24.6251 171.690 2 17 144
1952063S15153 1952 18 SP MM NOT_NAMED 1952-03-11 06:00:00 TS -25.4005 172.310 bom main 640 640 O_____O__OP___ jtwc_sh SH171952 -25.4000 172.300 -1 -25.4000 172.300 -25.4000 172.300 TC -25.4019 172.341 2 21 141
1952063S15153 1952 18 SP MM NOT_NAMED 1952-03-11 09:00:00 TS -26.2237 173.098 main 756 756 P_____P__PP___ SH171952 -26.2224 173.089 -1 -26.2224 173.089 -26.2224 173.089 TC -26.2276 173.122 2 22 137
1952063S15153 1952 18 SP MM NOT_NAMED 1952-03-11 12:00:00 TS -27.0000 174.000 bom main 842 788 O_____O__OO___ jtwc_sh SH171952 -27.0000 174.000 -1 -27.0000 174.000 -27.0000 174.000 TC -27.0000 174.000 2 21 130
1952063S15153 1952 18 SP MM NOT_NAMED 1952-03-11 15:00:00 TS -27.6115 174.927 main 790 761 P_____P__PP___ SH171952 -27.6018 174.921 -1 -27.6018 174.921 -27.6018 174.921 TC -27.6407 174.943 2 20 123
1952063S15153 1952 18 SP MM NOT_NAMED 1952-03-11 18:00:00 TS -28.1158 175.908 bom main 765 755 O_____O__OP___ jtwc_sh SH171952 -28.1000 175.900 -1 -28.1000 175.900 -28.1000 175.900 TC -28.1633 175.933 2 20 118
1952063S15153 1952 18 SP MM NOT_NAMED 1952-03-11 21:00:00 TS -28.5705 176.939 main 754 754 P_____P__PP___ SH171952 -28.5593 176.933 -1 -28.5593 176.933 -28.5593 176.933 TC -28.6042 176.957 2 20 116
1952063S15153 1952 18 SP MM NOT_NAMED 1952-03-12 00:00:00 TS -29.0000 178.000 bom main 773 O_____O__OO___ jtwc_sh SH171952 -29.0000 178.000 -1 -29.0000 178.000 -29.0000 178.000 TC -29.0000 178.000 2 20 115

Digital Typhoon Data and Search

About IBTrACS Database

This database is a web-friendly format of International Best Track Archive for Climate Stewardship (IBTrACS), a global best track data archive curated by NOAA dating back to 1842.

Updated: 2021-10-27